Terminal Aerodrome Forecast
Issued by NWS Milwaukee/Sullivan, WI

Home | Current Version | Previous Version | Text Only | Print | Product List | Glossary On
Versions: 1 2 3 4 5 6 7 8 9 10 11 12 13 14 15 16 17 18 19 20 21 22 23 24 25 26 27 28 29 30
000
FTUS43 KMKX 200854 AAA
TAFMKE
TAF AMD
KMKE 200854Z 2009/2112 17011KT P6SM SCT150
     FM201900 15011KT P6SM FEW070 SCT120
     FM202300 15010KT P6SM FEW070 BKN100
     FM210200 20006KT P6SM SCT070 BKN100=

USA.gov is the U.S. government's official web portal to all federal, state and local government web resources and services.